sensor_id;sensor_type;location;lat;lon;timestamp;P1;durP1;ratioP1;P2;durP2;ratioP2
18711;SDS011;9485;49.386;8.674;2023-12-14T00:02:29;7.33;;;5.90;;
18711;SDS011;9485;49.386;8.674;2023-12-14T00:07:50;6.60;;;5.90;;
18711;SDS011;9485;49.386;8.674;2023-12-14T00:13:11;5.97;;;5.37;;
18711;SDS011;9485;49.386;8.674;2023-12-14T00:18:32;6.93;;;6.23;;
18711;SDS011;9485;49.386;8.674;2023-12-14T00:23:54;8.00;;;6.27;;
18711;SDS011;9485;49.386;8.674;2023-12-14T00:29:14;7.07;;;5.93;;
18711;SDS011;9485;49.386;8.674;2023-12-14T00:34:35;7.77;;;6.30;;
18711;SDS011;9485;49.386;8.674;2023-12-14T00:39:57;8.00;;;6.30;;
18711;SDS011;9485;49.386;8.674;2023-12-14T00:45:18;7.00;;;5.93;;
18711;SDS011;9485;49.386;8.674;2023-12-14T00:50:38;7.47;;;6.23;;
18711;SDS011;9485;49.386;8.674;2023-12-14T00:56:00;7.30;;;6.10;;
18711;SDS011;9485;49.386;8.674;2023-12-14T01:01:21;8.67;;;5.83;;
18711;SDS011;9485;49.386;8.674;2023-12-14T01:06:41;8.37;;;6.30;;
18711;SDS011;9485;49.386;8.674;2023-12-14T01:12:03;8.20;;;6.87;;
18711;SDS011;9485;49.386;8.674;2023-12-14T01:17:24;7.50;;;6.10;;
18711;SDS011;9485;49.386;8.674;2023-12-14T01:22:46;7.13;;;5.93;;
18711;SDS011;9485;49.386;8.674;2023-12-14T01:28:08;10.73;;;6.27;;
18711;SDS011;9485;49.386;8.674;2023-12-14T01:33:28;7.30;;;5.97;;
18711;SDS011;9485;49.386;8.674;2023-12-14T01:38:49;7.20;;;6.07;;
18711;SDS011;9485;49.386;8.674;2023-12-14T01:44:11;6.67;;;5.70;;
18711;SDS011;9485;49.386;8.674;2023-12-14T01:49:32;6.40;;;5.53;;
18711;SDS011;9485;49.386;8.674;2023-12-14T01:54:52;7.17;;;5.83;;
18711;SDS011;9485;49.386;8.674;2023-12-14T02:00:18;6.80;;;5.87;;
18711;SDS011;9485;49.386;8.674;2023-12-14T02:05:49;6.43;;;5.47;;
18711;SDS011;9485;49.386;8.674;2023-12-14T02:11:10;7.20;;;5.97;;
18711;SDS011;9485;49.386;8.674;2023-12-14T02:16:33;7.13;;;6.13;;
18711;SDS011;9485;49.386;8.674;2023-12-14T02:21:57;6.17;;;5.33;;
18711;SDS011;9485;49.386;8.674;2023-12-14T02:27:18;6.90;;;6.17;;
18711;SDS011;9485;49.386;8.674;2023-12-14T02:32:39;7.27;;;6.13;;
18711;SDS011;9485;49.386;8.674;2023-12-14T02:38:00;7.53;;;6.00;;
18711;SDS011;9485;49.386;8.674;2023-12-14T02:43:22;9.97;;;6.87;;
18711;SDS011;9485;49.386;8.674;2023-12-14T02:48:43;9.10;;;6.87;;
18711;SDS011;9485;49.386;8.674;2023-12-14T02:54:04;9.63;;;6.70;;
18711;SDS011;9485;49.386;8.674;2023-12-14T02:59:26;8.00;;;6.17;;
18711;SDS011;9485;49.386;8.674;2023-12-14T03:04:46;7.50;;;5.63;;
18711;SDS011;9485;49.386;8.674;2023-12-14T03:10:07;7.43;;;5.83;;
18711;SDS011;9485;49.386;8.674;2023-12-14T03:15:30;7.53;;;6.40;;
18711;SDS011;9485;49.386;8.674;2023-12-14T03:20:50;7.67;;;6.23;;
18711;SDS011;9485;49.386;8.674;2023-12-14T03:26:11;6.30;;;5.33;;
18711;SDS011;9485;49.386;8.674;2023-12-14T03:31:33;7.17;;;6.13;;
18711;SDS011;9485;49.386;8.674;2023-12-14T03:36:53;8.03;;;6.03;;
18711;SDS011;9485;49.386;8.674;2023-12-14T03:42:14;7.60;;;5.97;;
18711;SDS011;9485;49.386;8.674;2023-12-14T03:47:36;8.07;;;6.57;;
18711;SDS011;9485;49.386;8.674;2023-12-14T03:52:56;8.97;;;6.83;;
18711;SDS011;9485;49.386;8.674;2023-12-14T03:58:17;9.63;;;6.60;;
18711;SDS011;9485;49.386;8.674;2023-12-14T04:03:39;7.77;;;6.67;;
18711;SDS011;9485;49.386;8.674;2023-12-14T04:09:00;7.37;;;6.33;;
18711;SDS011;9485;49.386;8.674;2023-12-14T04:14:21;8.63;;;6.60;;
18711;SDS011;9485;49.386;8.674;2023-12-14T04:19:42;8.37;;;6.87;;
18711;SDS011;9485;49.386;8.674;2023-12-14T04:25:03;8.37;;;7.03;;
18711;SDS011;9485;49.386;8.674;2023-12-14T04:30:25;7.10;;;6.03;;
18711;SDS011;9485;49.386;8.674;2023-12-14T04:35:47;7.60;;;6.17;;
18711;SDS011;9485;49.386;8.674;2023-12-14T04:41:07;8.83;;;7.20;;
18711;SDS011;9485;49.386;8.674;2023-12-14T04:46:28;10.03;;;8.00;;
18711;SDS011;9485;49.386;8.674;2023-12-14T04:51:50;9.20;;;7.27;;
18711;SDS011;9485;49.386;8.674;2023-12-14T04:57:11;9.00;;;7.00;;
18711;SDS011;9485;49.386;8.674;2023-12-14T05:02:32;9.30;;;7.13;;
18711;SDS011;9485;49.386;8.674;2023-12-14T05:07:54;10.23;;;7.90;;
18711;SDS011;9485;49.386;8.674;2023-12-14T05:13:15;7.90;;;6.70;;
18711;SDS011;9485;49.386;8.674;2023-12-14T05:18:35;7.80;;;6.77;;
18711;SDS011;9485;49.386;8.674;2023-12-14T05:23:57;9.93;;;7.53;;
18711;SDS011;9485;49.386;8.674;2023-12-14T05:29:18;10.00;;;7.50;;
18711;SDS011;9485;49.386;8.674;2023-12-14T05:34:40;12.37;;;8.10;;
18711;SDS011;9485;49.386;8.674;2023-12-14T05:40:02;10.03;;;8.07;;
18711;SDS011;9485;49.386;8.674;2023-12-14T05:45:23;9.83;;;7.50;;
18711;SDS011;9485;49.386;8.674;2023-12-14T05:50:44;8.77;;;7.00;;
18711;SDS011;9485;49.386;8.674;2023-12-14T05:56:07;9.00;;;7.00;;
18711;SDS011;9485;49.386;8.674;2023-12-14T06:01:28;9.60;;;7.20;;
18711;SDS011;9485;49.386;8.674;2023-12-14T06:06:49;10.40;;;7.80;;
18711;SDS011;9485;49.386;8.674;2023-12-14T06:12:11;8.97;;;6.70;;
18711;SDS011;9485;49.386;8.674;2023-12-14T06:17:32;11.83;;;7.63;;
18711;SDS011;9485;49.386;8.674;2023-12-14T06:22:56;8.50;;;6.53;;
18711;SDS011;9485;49.386;8.674;2023-12-14T06:28:17;10.60;;;8.07;;
18711;SDS011;9485;49.386;8.674;2023-12-14T06:33:38;11.13;;;8.20;;
18711;SDS011;9485;49.386;8.674;2023-12-14T06:38:59;9.93;;;7.67;;
18711;SDS011;9485;49.386;8.674;2023-12-14T06:44:23;12.07;;;8.13;;
18711;SDS011;9485;49.386;8.674;2023-12-14T06:49:45;12.97;;;7.80;;
18711;SDS011;9485;49.386;8.674;2023-12-14T06:55:05;10.33;;;7.50;;
18711;SDS011;9485;49.386;8.674;2023-12-14T07:00:29;11.10;;;7.33;;
18711;SDS011;9485;49.386;8.674;2023-12-14T07:05:50;10.07;;;7.50;;
18711;SDS011;9485;49.386;8.674;2023-12-14T07:11:10;10.30;;;7.73;;
18711;SDS011;9485;49.386;8.674;2023-12-14T07:16:33;10.17;;;7.67;;
18711;SDS011;9485;49.386;8.674;2023-12-14T07:21:53;11.50;;;8.47;;
18711;SDS011;9485;49.386;8.674;2023-12-14T07:27:14;9.10;;;7.00;;
18711;SDS011;9485;49.386;8.674;2023-12-14T07:32:36;8.77;;;6.73;;
18711;SDS011;9485;49.386;8.674;2023-12-14T07:37:56;11.37;;;7.23;;
18711;SDS011;9485;49.386;8.674;2023-12-14T07:43:17;10.17;;;7.33;;
18711;SDS011;9485;49.386;8.674;2023-12-14T07:48:38;11.63;;;8.00;;
18711;SDS011;9485;49.386;8.674;2023-12-14T07:53:59;12.27;;;8.60;;
18711;SDS011;9485;49.386;8.674;2023-12-14T07:59:22;10.53;;;7.97;;
18711;SDS011;9485;49.386;8.674;2023-12-14T08:04:44;11.50;;;8.00;;
18711;SDS011;9485;49.386;8.674;2023-12-14T08:10:05;11.50;;;8.23;;
18711;SDS011;9485;49.386;8.674;2023-12-14T08:15:27;11.70;;;7.63;;
18711;SDS011;9485;49.386;8.674;2023-12-14T08:20:50;12.07;;;8.13;;
18711;SDS011;9485;49.386;8.674;2023-12-14T08:26:14;12.57;;;8.80;;
18711;SDS011;9485;49.386;8.674;2023-12-14T08:31:34;11.63;;;8.60;;
18711;SDS011;9485;49.386;8.674;2023-12-14T08:36:56;12.83;;;8.50;;
18711;SDS011;9485;49.386;8.674;2023-12-14T08:42:17;10.53;;;8.07;;
18711;SDS011;9485;49.386;8.674;2023-12-14T08:47:38;12.73;;;9.07;;
18711;SDS011;9485;49.386;8.674;2023-12-14T08:53:00;11.17;;;8.37;;
18711;SDS011;9485;49.386;8.674;2023-12-14T08:58:23;11.47;;;8.50;;
18711;SDS011;9485;49.386;8.674;2023-12-14T09:03:44;11.53;;;9.13;;
18711;SDS011;9485;49.386;8.674;2023-12-14T09:09:06;11.07;;;8.27;;
18711;SDS011;9485;49.386;8.674;2023-12-14T09:14:26;11.27;;;9.13;;
18711;SDS011;9485;49.386;8.674;2023-12-14T09:19:48;13.53;;;9.37;;
18711;SDS011;9485;49.386;8.674;2023-12-14T09:25:10;14.23;;;9.47;;
18711;SDS011;9485;49.386;8.674;2023-12-14T09:30:30;10.20;;;8.33;;
18711;SDS011;9485;49.386;8.674;2023-12-14T09:35:54;9.47;;;7.53;;
18711;SDS011;9485;49.386;8.674;2023-12-14T09:41:16;12.50;;;8.70;;
18711;SDS011;9485;49.386;8.674;2023-12-14T09:46:37;11.77;;;8.27;;
18711;SDS011;9485;49.386;8.674;2023-12-14T09:52:00;11.73;;;9.23;;
18711;SDS011;9485;49.386;8.674;2023-12-14T09:57:23;8.90;;;7.17;;
18711;SDS011;9485;49.386;8.674;2023-12-14T10:02:44;10.63;;;7.43;;
18711;SDS011;9485;49.386;8.674;2023-12-14T10:08:05;12.00;;;7.77;;
18711;SDS011;9485;49.386;8.674;2023-12-14T10:13:39;10.70;;;8.27;;
18711;SDS011;9485;49.386;8.674;2023-12-14T10:19:03;10.60;;;7.90;;
18711;SDS011;9485;49.386;8.674;2023-12-14T10:24:24;9.17;;;7.93;;
18711;SDS011;9485;49.386;8.674;2023-12-14T10:29:46;9.57;;;7.30;;
18711;SDS011;9485;49.386;8.674;2023-12-14T10:35:07;12.17;;;7.77;;
18711;SDS011;9485;49.386;8.674;2023-12-14T10:40:28;9.57;;;7.50;;
18711;SDS011;9485;49.386;8.674;2023-12-14T10:45:51;10.30;;;7.70;;
18711;SDS011;9485;49.386;8.674;2023-12-14T10:51:13;8.23;;;7.33;;
18711;SDS011;9485;49.386;8.674;2023-12-14T10:56:37;11.93;;;8.47;;
18711;SDS011;9485;49.386;8.674;2023-12-14T11:01:59;8.50;;;7.43;;
18711;SDS011;9485;49.386;8.674;2023-12-14T11:13:10;8.97;;;7.17;;
18711;SDS011;9485;49.386;8.674;2023-12-14T11:18:34;9.37;;;7.23;;
18711;SDS011;9485;49.386;8.674;2023-12-14T11:23:55;9.60;;;7.53;;
18711;SDS011;9485;49.386;8.674;2023-12-14T11:29:16;9.63;;;7.57;;
18711;SDS011;9485;49.386;8.674;2023-12-14T11:34:40;11.77;;;8.63;;
18711;SDS011;9485;49.386;8.674;2023-12-14T11:40:04;9.57;;;8.30;;
18711;SDS011;9485;49.386;8.674;2023-12-14T11:45:29;10.03;;;8.17;;
18711;SDS011;9485;49.386;8.674;2023-12-14T11:50:51;11.17;;;8.37;;
18711;SDS011;9485;49.386;8.674;2023-12-14T11:56:12;9.30;;;7.20;;
18711;SDS011;9485;49.386;8.674;2023-12-14T12:01:35;8.63;;;6.70;;
18711;SDS011;9485;49.386;8.674;2023-12-14T12:07:01;8.97;;;6.80;;
18711;SDS011;9485;49.386;8.674;2023-12-14T12:12:23;8.27;;;6.43;;
18711;SDS011;9485;49.386;8.674;2023-12-14T12:17:44;8.23;;;6.33;;
18711;SDS011;9485;49.386;8.674;2023-12-14T12:23:06;9.00;;;6.03;;
18711;SDS011;9485;49.386;8.674;2023-12-14T12:28:26;8.87;;;6.67;;
18711;SDS011;9485;49.386;8.674;2023-12-14T12:33:49;10.33;;;6.87;;
18711;SDS011;9485;49.386;8.674;2023-12-14T12:39:11;8.80;;;6.07;;
18711;SDS011;9485;49.386;8.674;2023-12-14T12:44:32;8.63;;;6.33;;
18711;SDS011;9485;49.386;8.674;2023-12-14T12:49:53;9.63;;;6.07;;
18711;SDS011;9485;49.386;8.674;2023-12-14T12:55:15;7.90;;;6.07;;
18711;SDS011;9485;49.386;8.674;2023-12-14T13:00:35;11.07;;;7.50;;
18711;SDS011;9485;49.386;8.674;2023-12-14T13:05:56;11.53;;;7.30;;
18711;SDS011;9485;49.386;8.674;2023-12-14T13:11:18;10.07;;;6.47;;
18711;SDS011;9485;49.386;8.674;2023-12-14T13:16:38;11.53;;;6.90;;
18711;SDS011;9485;49.386;8.674;2023-12-14T13:22:01;9.37;;;7.13;;
18711;SDS011;9485;49.386;8.674;2023-12-14T13:27:25;8.50;;;6.30;;
18711;SDS011;9485;49.386;8.674;2023-12-14T13:32:45;10.77;;;7.07;;
18711;SDS011;9485;49.386;8.674;2023-12-14T13:38:06;9.50;;;6.63;;
18711;SDS011;9485;49.386;8.674;2023-12-14T13:43:28;9.33;;;6.53;;
18711;SDS011;9485;49.386;8.674;2023-12-14T13:48:48;8.40;;;6.10;;
18711;SDS011;9485;49.386;8.674;2023-12-14T13:54:09;9.47;;;6.53;;
18711;SDS011;9485;49.386;8.674;2023-12-14T13:59:31;8.60;;;6.13;;
18711;SDS011;9485;49.386;8.674;2023-12-14T14:04:52;9.40;;;6.57;;
18711;SDS011;9485;49.386;8.674;2023-12-14T14:10:12;11.23;;;7.07;;
18711;SDS011;9485;49.386;8.674;2023-12-14T14:15:34;12.67;;;7.63;;
18711;SDS011;9485;49.386;8.674;2023-12-14T14:20:55;8.40;;;6.17;;
18711;SDS011;9485;49.386;8.674;2023-12-14T14:26:15;9.13;;;6.33;;
18711;SDS011;9485;49.386;8.674;2023-12-14T14:31:37;8.70;;;6.70;;
18711;SDS011;9485;49.386;8.674;2023-12-14T14:36:58;10.13;;;6.33;;
18711;SDS011;9485;49.386;8.674;2023-12-14T14:42:18;10.73;;;6.67;;
18711;SDS011;9485;49.386;8.674;2023-12-14T14:47:40;9.47;;;7.20;;
18711;SDS011;9485;49.386;8.674;2023-12-14T14:53:01;9.07;;;6.43;;
18711;SDS011;9485;49.386;8.674;2023-12-14T14:58:22;8.57;;;6.50;;
18711;SDS011;9485;49.386;8.674;2023-12-14T15:03:44;8.87;;;5.90;;
18711;SDS011;9485;49.386;8.674;2023-12-14T15:09:05;8.57;;;6.03;;
18711;SDS011;9485;49.386;8.674;2023-12-14T15:14:27;6.70;;;5.47;;
18711;SDS011;9485;49.386;8.674;2023-12-14T15:19:48;7.43;;;4.97;;
18711;SDS011;9485;49.386;8.674;2023-12-14T15:25:09;8.20;;;5.53;;
18711;SDS011;9485;49.386;8.674;2023-12-14T15:30:32;6.87;;;4.70;;
18711;SDS011;9485;49.386;8.674;2023-12-14T15:35:54;6.23;;;4.40;;
18711;SDS011;9485;49.386;8.674;2023-12-14T15:41:15;5.63;;;4.17;;
18711;SDS011;9485;49.386;8.674;2023-12-14T15:46:35;7.00;;;4.33;;
18711;SDS011;9485;49.386;8.674;2023-12-14T15:51:57;6.67;;;4.73;;
18711;SDS011;9485;49.386;8.674;2023-12-14T15:57:18;4.10;;;3.57;;
18711;SDS011;9485;49.386;8.674;2023-12-14T16:02:39;5.53;;;4.20;;
18711;SDS011;9485;49.386;8.674;2023-12-14T16:08:00;6.07;;;3.87;;
18711;SDS011;9485;49.386;8.674;2023-12-14T16:13:21;5.60;;;3.80;;
18711;SDS011;9485;49.386;8.674;2023-12-14T16:18:41;4.87;;;3.67;;
18711;SDS011;9485;49.386;8.674;2023-12-14T16:24:04;5.47;;;4.00;;
18711;SDS011;9485;49.386;8.674;2023-12-14T16:29:26;5.37;;;3.60;;
18711;SDS011;9485;49.386;8.674;2023-12-14T16:34:46;5.63;;;4.03;;
18711;SDS011;9485;49.386;8.674;2023-12-14T16:40:08;4.47;;;3.53;;
18711;SDS011;9485;49.386;8.674;2023-12-14T16:45:30;4.90;;;3.57;;
18711;SDS011;9485;49.386;8.674;2023-12-14T16:50:50;3.03;;;2.50;;
18711;SDS011;9485;49.386;8.674;2023-12-14T16:56:14;4.47;;;2.93;;
18711;SDS011;9485;49.386;8.674;2023-12-14T17:01:36;3.37;;;2.83;;
18711;SDS011;9485;49.386;8.674;2023-12-14T17:06:58;3.27;;;2.67;;
18711;SDS011;9485;49.386;8.674;2023-12-14T17:12:20;2.47;;;2.10;;
18711;SDS011;9485;49.386;8.674;2023-12-14T17:17:40;3.00;;;2.50;;
18711;SDS011;9485;49.386;8.674;2023-12-14T17:23:02;2.53;;;2.30;;
18711;SDS011;9485;49.386;8.674;2023-12-14T17:28:25;2.70;;;1.83;;
18711;SDS011;9485;49.386;8.674;2023-12-14T17:33:46;2.70;;;2.20;;
18711;SDS011;9485;49.386;8.674;2023-12-14T17:39:07;4.23;;;2.80;;
18711;SDS011;9485;49.386;8.674;2023-12-14T17:44:29;3.63;;;3.17;;
18711;SDS011;9485;49.386;8.674;2023-12-14T17:49:50;3.63;;;2.83;;
18711;SDS011;9485;49.386;8.674;2023-12-14T17:55:10;2.57;;;2.20;;
18711;SDS011;9485;49.386;8.674;2023-12-14T18:00:33;2.87;;;2.53;;
18711;SDS011;9485;49.386;8.674;2023-12-14T18:05:53;3.07;;;2.50;;
18711;SDS011;9485;49.386;8.674;2023-12-14T18:11:13;3.33;;;2.60;;
18711;SDS011;9485;49.386;8.674;2023-12-14T18:16:36;3.77;;;2.20;;
18711;SDS011;9485;49.386;8.674;2023-12-14T18:21:58;3.87;;;3.00;;
18711;SDS011;9485;49.386;8.674;2023-12-14T18:27:19;3.53;;;3.00;;
18711;SDS011;9485;49.386;8.674;2023-12-14T18:32:41;3.23;;;2.63;;
18711;SDS011;9485;49.386;8.674;2023-12-14T18:38:02;2.73;;;2.30;;
18711;SDS011;9485;49.386;8.674;2023-12-14T18:43:23;3.47;;;2.87;;
18711;SDS011;9485;49.386;8.674;2023-12-14T18:48:45;3.47;;;2.67;;
18711;SDS011;9485;49.386;8.674;2023-12-14T18:54:06;3.50;;;2.80;;
18711;SDS011;9485;49.386;8.674;2023-12-14T18:59:29;3.27;;;2.63;;
18711;SDS011;9485;49.386;8.674;2023-12-14T19:04:51;3.33;;;2.70;;
18711;SDS011;9485;49.386;8.674;2023-12-14T19:10:11;3.73;;;2.90;;
18711;SDS011;9485;49.386;8.674;2023-12-14T19:15:32;5.03;;;2.43;;
18711;SDS011;9485;49.386;8.674;2023-12-14T19:20:54;3.70;;;2.70;;
18711;SDS011;9485;49.386;8.674;2023-12-14T19:26:15;3.63;;;2.50;;
18711;SDS011;9485;49.386;8.674;2023-12-14T19:31:36;3.87;;;2.90;;
18711;SDS011;9485;49.386;8.674;2023-12-14T19:36:59;3.43;;;2.67;;
18711;SDS011;9485;49.386;8.674;2023-12-14T19:42:19;2.80;;;2.40;;
18711;SDS011;9485;49.386;8.674;2023-12-14T19:47:40;3.33;;;2.60;;
18711;SDS011;9485;49.386;8.674;2023-12-14T19:53:02;3.70;;;2.93;;
18711;SDS011;9485;49.386;8.674;2023-12-14T19:58:22;2.80;;;2.30;;
18711;SDS011;9485;49.386;8.674;2023-12-14T20:03:43;4.07;;;2.70;;
18711;SDS011;9485;49.386;8.674;2023-12-14T20:09:05;6.40;;;4.43;;
18711;SDS011;9485;49.386;8.674;2023-12-14T20:14:26;4.57;;;3.27;;
18711;SDS011;9485;49.386;8.674;2023-12-14T20:19:47;3.53;;;3.00;;
18711;SDS011;9485;49.386;8.674;2023-12-14T20:25:09;5.63;;;3.43;;
18711;SDS011;9485;49.386;8.674;2023-12-14T20:30:30;3.80;;;2.87;;
18711;SDS011;9485;49.386;8.674;2023-12-14T20:35:51;3.70;;;2.80;;
18711;SDS011;9485;49.386;8.674;2023-12-14T20:41:14;2.73;;;2.47;;
18711;SDS011;9485;49.386;8.674;2023-12-14T20:46:34;3.97;;;2.60;;
18711;SDS011;9485;49.386;8.674;2023-12-14T20:51:56;3.77;;;2.70;;
18711;SDS011;9485;49.386;8.674;2023-12-14T20:57:19;3.43;;;2.53;;
18711;SDS011;9485;49.386;8.674;2023-12-14T21:02:40;5.00;;;3.23;;
18711;SDS011;9485;49.386;8.674;2023-12-14T21:08:01;4.03;;;3.10;;
18711;SDS011;9485;49.386;8.674;2023-12-14T21:13:23;3.73;;;2.90;;
18711;SDS011;9485;49.386;8.674;2023-12-14T21:18:43;4.67;;;3.10;;
18711;SDS011;9485;49.386;8.674;2023-12-14T21:24:05;4.57;;;2.83;;
18711;SDS011;9485;49.386;8.674;2023-12-14T21:29:27;4.23;;;3.00;;
18711;SDS011;9485;49.386;8.674;2023-12-14T21:34:47;4.37;;;3.20;;
18711;SDS011;9485;49.386;8.674;2023-12-14T21:40:08;4.00;;;3.17;;
18711;SDS011;9485;49.386;8.674;2023-12-14T21:45:32;4.47;;;3.13;;
18711;SDS011;9485;49.386;8.674;2023-12-14T21:50:52;4.67;;;3.07;;
18711;SDS011;9485;49.386;8.674;2023-12-14T21:56:13;4.40;;;3.20;;
18711;SDS011;9485;49.386;8.674;2023-12-14T22:01:35;4.07;;;2.93;;
18711;SDS011;9485;49.386;8.674;2023-12-14T22:06:56;4.20;;;3.03;;
18711;SDS011;9485;49.386;8.674;2023-12-14T22:12:16;5.93;;;3.10;;
18711;SDS011;9485;49.386;8.674;2023-12-14T22:17:38;4.20;;;3.20;;
18711;SDS011;9485;49.386;8.674;2023-12-14T22:22:59;4.90;;;3.37;;
18711;SDS011;9485;49.386;8.674;2023-12-14T22:28:20;4.47;;;3.30;;
18711;SDS011;9485;49.386;8.674;2023-12-14T22:33:42;4.47;;;3.20;;
18711;SDS011;9485;49.386;8.674;2023-12-14T22:39:03;5.67;;;3.50;;
18711;SDS011;9485;49.386;8.674;2023-12-14T22:44:24;6.30;;;3.47;;
18711;SDS011;9485;49.386;8.674;2023-12-14T22:49:46;5.57;;;3.50;;
18711;SDS011;9485;49.386;8.674;2023-12-14T22:55:06;5.80;;;3.67;;
18711;SDS011;9485;49.386;8.674;2023-12-14T23:00:30;6.87;;;3.80;;
18711;SDS011;9485;49.386;8.674;2023-12-14T23:05:56;4.40;;;3.40;;
18711;SDS011;9485;49.386;8.674;2023-12-14T23:11:17;4.80;;;3.47;;
18711;SDS011;9485;49.386;8.674;2023-12-14T23:16:42;4.43;;;3.30;;
18711;SDS011;9485;49.386;8.674;2023-12-14T23:22:05;6.07;;;3.33;;
18711;SDS011;9485;49.386;8.674;2023-12-14T23:27:25;6.03;;;3.60;;
18711;SDS011;9485;49.386;8.674;2023-12-14T23:32:46;5.97;;;3.77;;
18711;SDS011;9485;49.386;8.674;2023-12-14T23:38:08;6.17;;;3.73;;
18711;SDS011;9485;49.386;8.674;2023-12-14T23:43:29;6.07;;;4.20;;
18711;SDS011;9485;49.386;8.674;2023-12-14T23:48:51;5.33;;;3.87;;
18711;SDS011;9485;49.386;8.674;2023-12-14T23:54:13;5.87;;;4.07;;
18711;SDS011;9485;49.386;8.674;2023-12-14T23:59:34;6.53;;;4.20;;
